createdAt,value
2022-10-22T00:03:29.916Z,91.45
2022-10-22T00:08:32.683Z,91.84
2022-10-22T00:13:35.450Z,92.06
2022-10-22T00:18:38.673Z,92.14
2022-10-22T00:23:42.663Z,92.38
2022-10-22T00:28:45.305Z,91.92
2022-10-22T00:33:48.258Z,91.86
2022-10-22T00:38:50.842Z,92.32
2022-10-22T00:44:02.325Z,91.44
2022-10-22T00:49:05.118Z,92.01
2022-10-22T00:54:09.188Z,92.14
2022-10-22T00:59:13.269Z,92.51
2022-10-22T01:04:17.064Z,91.71
2022-10-22T01:09:28.596Z,91.98
2022-10-22T01:15:11.073Z,92.43
2022-10-22T01:20:34.513Z,92.26
2022-10-22T01:26:05.465Z,91.59
2022-10-22T01:31:11.773Z,92.22
2022-10-22T01:36:15.813Z,91.83
2022-10-22T01:41:19.242Z,92.26
2022-10-22T01:46:24.196Z,92.34
2022-10-22T01:51:39.058Z,92.40
2022-10-22T01:56:58.502Z,92.55
2022-10-22T02:02:22.890Z,92.11
2022-10-22T02:07:30.994Z,92.05
2022-10-22T02:12:35.265Z,91.77
2022-10-22T02:17:39.825Z,91.11
2022-10-22T02:22:43.063Z,91.20
2022-10-22T02:27:51.917Z,90.68
2022-10-22T02:33:02.956Z,90.34
2022-10-22T02:38:06.442Z,90.99
2022-10-22T02:43:09.055Z,92.14
2022-10-22T02:48:12.100Z,92.57
2022-10-22T02:53:14.666Z,91.85
2022-10-22T02:58:17.261Z,91.52
2022-10-22T03:03:19.893Z,91.81
2022-10-22T03:08:22.549Z,91.63
2022-10-22T03:13:25.160Z,92.37
2022-10-22T03:18:27.717Z,92.17
2022-10-22T03:23:32.029Z,92.37
2022-10-22T03:28:35.541Z,91.83
2022-10-22T03:33:38.405Z,92.56
2022-10-22T03:38:41.884Z,92.24
2022-10-22T03:43:49.693Z,91.88
2022-10-22T03:48:52.237Z,91.28
2022-10-22T03:53:55.365Z,91.62
2022-10-22T03:58:59.602Z,92.06
2022-10-22T04:04:02.532Z,91.79
2022-10-22T04:09:05.166Z,91.62
2022-10-22T04:14:07.694Z,91.02
2022-10-22T04:19:10.328Z,90.94
2022-10-22T04:24:12.845Z,90.63
2022-10-22T04:29:16.427Z,90.76
2022-10-22T04:34:19.240Z,90.82
2022-10-22T04:39:21.986Z,90.76
2022-10-22T04:44:24.524Z,90.69
2022-10-22T04:49:27.363Z,90.58
2022-10-22T04:54:32.265Z,91.18
2022-10-22T04:59:35.786Z,90.85
2022-10-22T05:04:38.320Z,90.81
2022-10-22T05:09:40.891Z,90.83
2022-10-22T05:14:44.801Z,90.30
2022-10-22T05:19:47.654Z,90.43
2022-10-22T05:24:50.373Z,90.65
2022-10-22T05:29:53.006Z,90.84
2022-10-22T05:34:55.642Z,90.38
2022-10-22T05:40:06.783Z,89.77
2022-10-22T05:45:21.023Z,89.42
2022-10-22T05:50:23.606Z,88.63
2022-10-22T05:55:26.433Z,88.57
2022-10-22T06:00:29.104Z,89.27
2022-10-22T06:05:36.016Z,88.48
2022-10-22T06:10:42.881Z,88.22
2022-10-22T06:15:45.487Z,88.33
2022-10-22T06:20:48.255Z,87.01
2022-10-22T06:25:58.196Z,87.26
2022-10-22T06:31:02.342Z,86.75
2022-10-22T06:36:09.302Z,86.19
2022-10-22T06:41:16.572Z,85.41
2022-10-22T06:46:21.714Z,84.50
2022-10-22T06:51:25.523Z,84.08
2022-10-22T06:56:29.537Z,83.39
2022-10-22T07:01:34.405Z,83.51
2022-10-22T07:06:37.196Z,84.21
2022-10-22T07:11:45.198Z,83.92
2022-10-22T07:16:47.801Z,84.45
2022-10-22T07:21:50.456Z,84.42
2022-10-22T07:26:53.734Z,83.70
2022-10-22T07:31:56.441Z,82.86
2022-10-22T07:36:59.462Z,82.32
2022-10-22T07:42:01.981Z,81.24
2022-10-22T07:47:04.592Z,80.97
2022-10-22T07:52:07.978Z,79.75
2022-10-22T07:57:10.556Z,80.08
2022-10-22T08:02:13.201Z,79.87
2022-10-22T08:07:15.984Z,80.28
2022-10-22T08:12:18.961Z,80.59
2022-10-22T08:17:21.538Z,80.30
2022-10-22T08:22:24.361Z,79.86
2022-10-22T08:27:27.013Z,79.65
2022-10-22T08:32:29.594Z,78.30
2022-10-22T08:37:32.236Z,78.18
2022-10-22T08:42:59.184Z,78.52
2022-10-22T08:48:14.894Z,76.82
2022-10-22T08:53:26.076Z,78.08
2022-10-22T08:58:54.182Z,78.13
2022-10-22T09:04:14.126Z,77.90
2022-10-22T09:09:18.585Z,77.35
2022-10-22T09:14:23.652Z,76.79
2022-10-22T09:19:43.962Z,76.89
2022-10-22T09:24:53.486Z,77.06
2022-10-22T09:29:56.355Z,76.41
2022-10-22T09:34:59.179Z,75.87
2022-10-22T09:40:06.348Z,75.75
2022-10-22T09:45:18.553Z,75.38
2022-10-22T09:50:28.594Z,74.98
2022-10-22T09:55:31.714Z,74.83
2022-10-22T10:00:34.285Z,75.67
2022-10-22T10:05:37.814Z,76.07
2022-10-22T10:10:50.367Z,75.67
2022-10-22T10:16:22.288Z,75.54
2022-10-22T10:21:52.967Z,77.23
2022-10-22T10:27:23.832Z,75.84
2022-10-22T10:32:29.467Z,75.43
2022-10-22T10:37:59.118Z,76.11
2022-10-22T10:43:16.612Z,74.50
2022-10-22T10:48:37.049Z,74.22
2022-10-22T10:54:13.460Z,73.95
2022-10-22T10:59:43.296Z,74.19
2022-10-22T11:04:54.489Z,73.66
2022-10-22T11:10:03.185Z,73.83
2022-10-22T11:15:22.687Z,74.87
2022-10-22T11:20:44.112Z,75.29
2022-10-22T11:25:48.435Z,75.66
2022-10-22T11:30:58.261Z,76.75
2022-10-22T11:36:04.124Z,76.07
2022-10-22T11:41:15.952Z,75.15
2022-10-22T11:46:18.436Z,75.12
2022-10-22T11:51:37.017Z,75.14
2022-10-22T11:56:39.717Z,75.46
2022-10-22T12:01:43.249Z,75.83
2022-10-22T12:07:02.907Z,75.24
2022-10-22T12:12:15.228Z,75.52
2022-10-22T12:17:19.707Z,75.97
2022-10-22T12:22:29.721Z,76.59
2022-10-22T12:27:41.654Z,76.99
2022-10-22T12:32:44.786Z,76.80
2022-10-22T12:37:52.853Z,77.96
2022-10-22T12:43:07.738Z,77.97
2022-10-22T12:48:25.578Z,78.22
2022-10-22T12:53:37.923Z,78.15
2022-10-22T12:58:48.642Z,78.55
2022-10-22T13:04:04.221Z,78.08
2022-10-22T13:09:37.398Z,78.43
2022-10-22T13:14:39.993Z,79.05
2022-10-22T13:19:54.683Z,79.28
2022-10-22T13:25:13.197Z,80.17
2022-10-22T13:30:24.087Z,79.99
2022-10-22T13:35:34.040Z,79.68
2022-10-22T13:40:38.942Z,80.03
2022-10-22T13:45:42.026Z,80.31
2022-10-22T13:50:45.032Z,80.93
2022-10-22T13:55:47.932Z,81.98
2022-10-22T14:01:00.730Z,82.11
2022-10-22T14:06:03.407Z,81.82
2022-10-22T14:11:06.493Z,82.30
2022-10-22T14:16:16.579Z,82.72
2022-10-22T14:21:20.097Z,83.09
2022-10-22T14:26:28.199Z,83.52
2022-10-22T14:31:31.314Z,83.52
2022-10-22T14:36:33.929Z,84.06
2022-10-22T14:41:36.990Z,84.30
2022-10-22T14:46:42.704Z,84.23
2022-10-22T14:51:45.313Z,84.56
2022-10-22T14:56:48.088Z,84.98
2022-10-22T15:01:50.833Z,85.71
2022-10-22T15:06:56.425Z,85.81
2022-10-22T15:11:59.029Z,85.70
2022-10-22T15:17:01.846Z,86.04
2022-10-22T15:22:05.952Z,85.96
2022-10-22T15:27:09.011Z,86.36
2022-10-22T15:32:11.700Z,86.13
2022-10-22T15:37:14.619Z,86.85
2022-10-22T15:42:19.065Z,86.78
2022-10-22T15:47:22.752Z,87.06
2022-10-22T15:52:25.374Z,87.26
2022-10-22T15:57:28.041Z,87.55
2022-10-22T16:02:31.004Z,87.32
2022-10-22T16:07:33.566Z,87.72
2022-10-22T16:12:36.216Z,87.20
2022-10-22T16:17:38.913Z,87.49
2022-10-22T16:22:41.722Z,87.52
2022-10-22T16:27:44.526Z,87.84
2022-10-22T16:32:47.106Z,87.78
2022-10-22T16:37:49.673Z,87.63
2022-10-22T16:42:52.605Z,87.73
2022-10-22T16:47:55.175Z,87.72
2022-10-22T16:52:57.846Z,87.11
2022-10-22T16:58:00.372Z,88.06
2022-10-22T17:03:02.925Z,87.66
2022-10-22T17:08:05.676Z,87.76
2022-10-22T17:13:08.288Z,87.41
2022-10-22T17:18:13.221Z,87.29
2022-10-22T17:23:19.201Z,87.46
2022-10-22T17:28:22.343Z,87.47
2022-10-22T17:33:25.046Z,87.93
2022-10-22T17:38:28.239Z,87.74
2022-10-22T17:43:31.287Z,87.66
2022-10-22T17:48:34.845Z,87.77
2022-10-22T17:53:40.961Z,87.66
2022-10-22T17:58:44.021Z,87.48
2022-10-22T18:03:46.903Z,87.98
2022-10-22T18:08:49.601Z,87.67
2022-10-22T18:13:54.749Z,87.21
2022-10-22T18:18:58.512Z,87.72
2022-10-22T18:24:01.214Z,87.87
2022-10-22T18:29:03.851Z,87.58
2022-10-22T18:34:06.678Z,87.72
2022-10-22T18:39:14.562Z,87.64
2022-10-22T18:44:18.053Z,87.62
2022-10-22T18:49:20.723Z,88.25
2022-10-22T18:54:24.359Z,87.32
2022-10-22T18:59:28.301Z,87.74
2022-10-22T19:04:37.023Z,87.63
2022-10-22T19:09:40.984Z,88.13
2022-10-22T19:14:43.957Z,87.81
2022-10-22T19:19:46.701Z,87.31
2022-10-22T19:24:51.357Z,87.89
2022-10-22T19:29:53.875Z,87.47
2022-10-22T19:34:57.041Z,87.62
2022-10-22T19:39:59.892Z,88.23
2022-10-22T19:45:02.734Z,87.45
2022-10-22T19:50:06.028Z,87.65
2022-10-22T19:55:10.288Z,88.26
2022-10-22T20:00:13.253Z,87.71
2022-10-22T20:05:17.493Z,87.32
2022-10-22T20:10:20.166Z,87.68
2022-10-22T20:15:22.802Z,87.98
2022-10-22T20:20:26.616Z,87.89
2022-10-22T20:25:29.440Z,87.70
2022-10-22T20:30:32.137Z,87.27
2022-10-22T20:35:36.257Z,87.66
2022-10-22T20:40:38.843Z,87.32
2022-10-22T20:45:41.555Z,87.40
2022-10-22T20:50:44.173Z,86.89
2022-10-22T20:55:48.084Z,87.14
2022-10-22T21:00:51.433Z,86.46
2022-10-22T21:05:54.020Z,87.57
2022-10-22T21:10:57.158Z,86.54
2022-10-22T21:15:59.839Z,87.15
2022-10-22T21:21:04.465Z,86.46
2022-10-22T21:26:07.123Z,86.09
2022-10-22T21:31:11.513Z,86.60
2022-10-22T21:36:14.147Z,86.49
2022-10-22T21:41:18.909Z,86.65
2022-10-22T21:46:26.753Z,86.78
2022-10-22T21:51:31.435Z,86.23
2022-10-22T21:56:35.517Z,86.06
2022-10-22T22:01:38.216Z,85.58
2022-10-22T22:06:40.830Z,85.96
2022-10-22T22:11:43.402Z,85.90
2022-10-22T22:16:45.959Z,86.14
2022-10-22T22:21:48.501Z,85.75
2022-10-22T22:26:51.138Z,85.91
2022-10-22T22:31:53.754Z,85.81
2022-10-22T22:36:56.471Z,85.53
2022-10-22T22:41:59.135Z,85.98
2022-10-22T22:47:01.860Z,85.64
2022-10-22T22:52:04.807Z,85.35
2022-10-22T22:57:07.554Z,84.97
2022-10-22T23:02:10.416Z,84.92
2022-10-22T23:07:13.164Z,84.94
2022-10-22T23:12:15.767Z,85.38
2022-10-22T23:17:19.465Z,85.29
2022-10-22T23:22:22.059Z,85.19
2022-10-22T23:27:24.659Z,85.35
2022-10-22T23:32:27.291Z,85.51
2022-10-22T23:37:29.844Z,85.46
2022-10-22T23:42:32.610Z,84.77
2022-10-22T23:47:35.204Z,84.91
2022-10-22T23:52:37.846Z,85.38
2022-10-22T23:57:40.405Z,85.84
